sensor_id;sensor_type;location;lat;lon;timestamp;P1;durP1;ratioP1;P2;durP2;ratioP2
36963;SDS011;22878;48.616;35.326;2023-04-24T00:02:07;122.10;;;24.80;;
36963;SDS011;22878;48.616;35.326;2023-04-24T00:04:36;93.90;;;32.50;;
36963;SDS011;22878;48.616;35.326;2023-04-24T00:07:05;127.10;;;29.10;;
36963;SDS011;22878;48.616;35.326;2023-04-24T00:09:32;92.50;;;24.90;;
36963;SDS011;22878;48.616;35.326;2023-04-24T00:11:58;84.70;;;24.10;;
36963;SDS011;22878;48.616;35.326;2023-04-24T00:14:23;44.50;;;21.10;;
36963;SDS011;22878;48.616;35.326;2023-04-24T00:16:49;47.00;;;19.70;;
36963;SDS011;22878;48.616;35.326;2023-04-24T00:19:15;65.70;;;22.50;;
36963;SDS011;22878;48.616;35.326;2023-04-24T00:21:40;64.60;;;23.10;;
36963;SDS011;22878;48.616;35.326;2023-04-24T00:24:06;49.50;;;21.60;;
36963;SDS011;22878;48.616;35.326;2023-04-24T00:26:34;61.70;;;23.10;;
36963;SDS011;22878;48.616;35.326;2023-04-24T00:28:59;62.60;;;24.80;;
36963;SDS011;22878;48.616;35.326;2023-04-24T00:31:25;84.10;;;25.20;;
36963;SDS011;22878;48.616;35.326;2023-04-24T00:33:50;70.30;;;22.80;;
36963;SDS011;22878;48.616;35.326;2023-04-24T00:36:16;72.50;;;22.70;;
36963;SDS011;22878;48.616;35.326;2023-04-24T00:38:41;81.90;;;23.20;;
36963;SDS011;22878;48.616;35.326;2023-04-24T00:41:07;57.70;;;21.30;;
36963;SDS011;22878;48.616;35.326;2023-04-24T00:46:54;40.90;;;19.30;;
36963;SDS011;22878;48.616;35.326;2023-04-24T00:49:20;62.60;;;22.00;;
36963;SDS011;22878;48.616;35.326;2023-04-24T00:51:46;56.30;;;22.00;;
36963;SDS011;22878;48.616;35.326;2023-04-24T00:54:12;67.90;;;25.90;;
36963;SDS011;22878;48.616;35.326;2023-04-24T00:56:39;48.00;;;20.80;;
36963;SDS011;22878;48.616;35.326;2023-04-24T00:59:06;42.70;;;20.40;;
36963;SDS011;22878;48.616;35.326;2023-04-24T01:01:31;79.20;;;24.60;;
36963;SDS011;22878;48.616;35.326;2023-04-24T01:03:57;47.50;;;20.60;;
36963;SDS011;22878;48.616;35.326;2023-04-24T01:06:25;40.20;;;19.90;;
36963;SDS011;22878;48.616;35.326;2023-04-24T01:08:54;37.20;;;18.40;;
36963;SDS011;22878;48.616;35.326;2023-04-24T01:11:20;55.80;;;19.10;;
36963;SDS011;22878;48.616;35.326;2023-04-24T01:13:47;38.80;;;19.80;;
36963;SDS011;22878;48.616;35.326;2023-04-24T01:16:13;49.30;;;22.10;;
36963;SDS011;22878;48.616;35.326;2023-04-24T01:18:40;63.80;;;26.90;;
36963;SDS011;22878;48.616;35.326;2023-04-24T01:21:06;59.30;;;24.90;;
36963;SDS011;22878;48.616;35.326;2023-04-24T01:23:34;48.70;;;21.80;;
36963;SDS011;22878;48.616;35.326;2023-04-24T01:26:00;47.80;;;20.80;;
36963;SDS011;22878;48.616;35.326;2023-04-24T01:28:25;41.30;;;20.50;;
36963;SDS011;22878;48.616;35.326;2023-04-24T01:30:51;44.80;;;19.30;;
36963;SDS011;22878;48.616;35.326;2023-04-24T01:33:18;43.30;;;18.50;;
36963;SDS011;22878;48.616;35.326;2023-04-24T01:35:46;45.80;;;20.00;;
36963;SDS011;22878;48.616;35.326;2023-04-24T01:38:12;49.10;;;19.70;;
36963;SDS011;22878;48.616;35.326;2023-04-24T01:40:37;36.20;;;17.40;;
36963;SDS011;22878;48.616;35.326;2023-04-24T01:43:03;53.40;;;17.80;;
36963;SDS011;22878;48.616;35.326;2023-04-24T01:45:29;40.00;;;17.20;;
36963;SDS011;22878;48.616;35.326;2023-04-24T01:47:54;44.90;;;17.20;;
36963;SDS011;22878;48.616;35.326;2023-04-24T01:50:20;51.70;;;16.60;;
36963;SDS011;22878;48.616;35.326;2023-04-24T01:52:46;39.90;;;15.60;;
36963;SDS011;22878;48.616;35.326;2023-04-24T01:55:12;43.70;;;15.50;;
36963;SDS011;22878;48.616;35.326;2023-04-24T01:57:37;49.20;;;18.10;;
36963;SDS011;22878;48.616;35.326;2023-04-24T02:00:03;62.60;;;17.60;;
36963;SDS011;22878;48.616;35.326;2023-04-24T02:02:30;52.90;;;16.50;;
36963;SDS011;22878;48.616;35.326;2023-04-24T02:04:56;41.20;;;16.00;;
36963;SDS011;22878;48.616;35.326;2023-04-24T02:07:22;55.90;;;16.90;;
36963;SDS011;22878;48.616;35.326;2023-04-24T02:09:48;57.40;;;16.80;;
36963;SDS011;22878;48.616;35.326;2023-04-24T02:12:14;59.60;;;16.60;;
36963;SDS011;22878;48.616;35.326;2023-04-24T02:14:40;58.80;;;16.50;;
36963;SDS011;22878;48.616;35.326;2023-04-24T02:17:07;57.00;;;16.40;;
36963;SDS011;22878;48.616;35.326;2023-04-24T02:19:33;66.30;;;16.70;;
36963;SDS011;22878;48.616;35.326;2023-04-24T02:21:58;45.60;;;16.30;;
36963;SDS011;22878;48.616;35.326;2023-04-24T02:24:24;57.10;;;16.30;;
36963;SDS011;22878;48.616;35.326;2023-04-24T02:26:49;40.40;;;16.40;;
36963;SDS011;22878;48.616;35.326;2023-04-24T02:29:15;52.30;;;16.30;;
36963;SDS011;22878;48.616;35.326;2023-04-24T02:35:02;57.10;;;17.20;;
36963;SDS011;22878;48.616;35.326;2023-04-24T02:37:27;57.70;;;16.10;;
36963;SDS011;22878;48.616;35.326;2023-04-24T02:39:53;39.90;;;14.10;;
36963;SDS011;22878;48.616;35.326;2023-04-24T02:42:19;47.40;;;14.40;;
36963;SDS011;22878;48.616;35.326;2023-04-24T02:44:45;51.30;;;16.30;;
36963;SDS011;22878;48.616;35.326;2023-04-24T02:47:10;43.50;;;15.10;;
36963;SDS011;22878;48.616;35.326;2023-04-24T02:49:35;43.40;;;14.80;;
36963;SDS011;22878;48.616;35.326;2023-04-24T02:52:01;53.80;;;15.80;;
36963;SDS011;22878;48.616;35.326;2023-04-24T02:54:26;51.30;;;15.80;;
36963;SDS011;22878;48.616;35.326;2023-04-24T02:56:52;51.30;;;15.20;;
36963;SDS011;22878;48.616;35.326;2023-04-24T02:59:18;44.20;;;15.50;;
36963;SDS011;22878;48.616;35.326;2023-04-24T03:01:43;49.50;;;15.20;;
36963;SDS011;22878;48.616;35.326;2023-04-24T03:04:08;45.30;;;14.90;;
36963;SDS011;22878;48.616;35.326;2023-04-24T03:06:35;53.20;;;16.10;;
36963;SDS011;22878;48.616;35.326;2023-04-24T03:09:01;54.90;;;16.30;;
36963;SDS011;22878;48.616;35.326;2023-04-24T03:11:26;53.60;;;17.00;;
36963;SDS011;22878;48.616;35.326;2023-04-24T03:13:52;62.90;;;16.20;;
36963;SDS011;22878;48.616;35.326;2023-04-24T03:16:17;53.40;;;16.50;;
36963;SDS011;22878;48.616;35.326;2023-04-24T03:18:42;62.10;;;17.80;;
36963;SDS011;22878;48.616;35.326;2023-04-24T03:21:08;60.50;;;18.60;;
36963;SDS011;22878;48.616;35.326;2023-04-24T03:23:34;56.40;;;16.40;;
36963;SDS011;22878;48.616;35.326;2023-04-24T03:25:59;44.30;;;17.40;;
36963;SDS011;22878;48.616;35.326;2023-04-24T03:28:25;45.10;;;15.80;;
36963;SDS011;22878;48.616;35.326;2023-04-24T03:30:50;39.90;;;16.60;;
36963;SDS011;22878;48.616;35.326;2023-04-24T03:33:17;30.70;;;16.00;;
36963;SDS011;22878;48.616;35.326;2023-04-24T03:35:42;41.80;;;17.80;;
36963;SDS011;22878;48.616;35.326;2023-04-24T03:38:07;38.30;;;16.40;;
36963;SDS011;22878;48.616;35.326;2023-04-24T03:40:33;38.20;;;15.20;;
36963;SDS011;22878;48.616;35.326;2023-04-24T03:42:59;38.90;;;15.90;;
36963;SDS011;22878;48.616;35.326;2023-04-24T03:45:25;35.00;;;15.30;;
36963;SDS011;22878;48.616;35.326;2023-04-24T03:47:50;36.90;;;15.70;;
36963;SDS011;22878;48.616;35.326;2023-04-24T03:50:16;33.90;;;16.10;;
36963;SDS011;22878;48.616;35.326;2023-04-24T03:52:44;38.00;;;16.10;;
36963;SDS011;22878;48.616;35.326;2023-04-24T03:55:10;37.60;;;17.10;;
36963;SDS011;22878;48.616;35.326;2023-04-24T03:57:37;36.00;;;15.90;;
36963;SDS011;22878;48.616;35.326;2023-04-24T04:00:04;41.30;;;15.80;;
36963;SDS011;22878;48.616;35.326;2023-04-24T04:02:30;38.30;;;16.20;;
36963;SDS011;22878;48.616;35.326;2023-04-24T04:04:55;40.30;;;15.90;;
36963;SDS011;22878;48.616;35.326;2023-04-24T04:07:21;41.80;;;16.70;;
36963;SDS011;22878;48.616;35.326;2023-04-24T04:09:46;42.70;;;17.90;;
36963;SDS011;22878;48.616;35.326;2023-04-24T04:12:12;40.50;;;17.80;;
36963;SDS011;22878;48.616;35.326;2023-04-24T04:14:37;39.60;;;17.30;;
36963;SDS011;22878;48.616;35.326;2023-04-24T04:17:03;38.90;;;16.60;;
36963;SDS011;22878;48.616;35.326;2023-04-24T04:19:28;37.20;;;15.70;;
36963;SDS011;22878;48.616;35.326;2023-04-24T04:21:54;39.60;;;16.10;;
36963;SDS011;22878;48.616;35.326;2023-04-24T04:24:21;34.80;;;15.80;;
36963;SDS011;22878;48.616;35.326;2023-04-24T04:26:47;41.60;;;16.00;;
36963;SDS011;22878;48.616;35.326;2023-04-24T04:29:16;37.40;;;15.30;;
36963;SDS011;22878;48.616;35.326;2023-04-24T04:31:45;42.50;;;16.40;;
36963;SDS011;22878;48.616;35.326;2023-04-24T04:34:11;41.50;;;15.40;;
36963;SDS011;22878;48.616;35.326;2023-04-24T04:36:37;30.90;;;14.60;;
36963;SDS011;22878;48.616;35.326;2023-04-24T04:39:05;27.90;;;12.00;;
36963;SDS011;22878;48.616;35.326;2023-04-24T04:41:31;33.80;;;11.40;;
36963;SDS011;22878;48.616;35.326;2023-04-24T04:43:57;24.20;;;11.10;;
36963;SDS011;22878;48.616;35.326;2023-04-24T04:46:25;16.30;;;8.50;;
36963;SDS011;22878;48.616;35.326;2023-04-24T04:48:51;18.00;;;8.90;;
36963;SDS011;22878;48.616;35.326;2023-04-24T04:51:18;15.40;;;7.70;;
36963;SDS011;22878;48.616;35.326;2023-04-24T04:53:43;12.50;;;6.90;;
36963;SDS011;22878;48.616;35.326;2023-04-24T04:56:09;15.10;;;7.20;;
36963;SDS011;22878;48.616;35.326;2023-04-24T04:58:34;14.80;;;7.30;;
36963;SDS011;22878;48.616;35.326;2023-04-24T05:01:00;17.50;;;6.90;;
36963;SDS011;22878;48.616;35.326;2023-04-24T05:03:25;19.30;;;7.80;;
36963;SDS011;22878;48.616;35.326;2023-04-24T05:05:51;11.60;;;6.00;;
36963;SDS011;22878;48.616;35.326;2023-04-24T05:08:16;10.10;;;6.10;;
36963;SDS011;22878;48.616;35.326;2023-04-24T05:10:41;19.30;;;7.00;;
36963;SDS011;22878;48.616;35.326;2023-04-24T05:13:07;10.90;;;5.70;;
36963;SDS011;22878;48.616;35.326;2023-04-24T05:15:33;11.10;;;5.90;;
36963;SDS011;22878;48.616;35.326;2023-04-24T05:17:59;8.70;;;5.60;;
36963;SDS011;22878;48.616;35.326;2023-04-24T05:20:25;13.20;;;5.90;;
36963;SDS011;22878;48.616;35.326;2023-04-24T05:22:50;10.80;;;6.40;;
36963;SDS011;22878;48.616;35.326;2023-04-24T05:25:16;16.20;;;5.90;;
36963;SDS011;22878;48.616;35.326;2023-04-24T05:27:42;9.80;;;5.30;;
36963;SDS011;22878;48.616;35.326;2023-04-24T05:30:07;8.70;;;4.40;;
36963;SDS011;22878;48.616;35.326;2023-04-24T05:32:34;11.20;;;5.80;;
36963;SDS011;22878;48.616;35.326;2023-04-24T05:35:00;12.30;;;5.30;;
36963;SDS011;22878;48.616;35.326;2023-04-24T05:37:26;11.00;;;6.10;;
36963;SDS011;22878;48.616;35.326;2023-04-24T05:39:52;11.40;;;5.40;;
36963;SDS011;22878;48.616;35.326;2023-04-24T05:42:18;12.50;;;5.60;;
36963;SDS011;22878;48.616;35.326;2023-04-24T05:44:43;12.60;;;5.40;;
36963;SDS011;22878;48.616;35.326;2023-04-24T05:47:09;13.20;;;5.70;;
36963;SDS011;22878;48.616;35.326;2023-04-24T05:49:35;14.90;;;5.80;;
36963;SDS011;22878;48.616;35.326;2023-04-24T05:52:01;13.40;;;5.50;;
36963;SDS011;22878;48.616;35.326;2023-04-24T05:54:29;9.20;;;4.70;;
36963;SDS011;22878;48.616;35.326;2023-04-24T05:56:54;15.80;;;5.20;;
36963;SDS011;22878;48.616;35.326;2023-04-24T05:59:21;12.70;;;5.20;;
36963;SDS011;22878;48.616;35.326;2023-04-24T06:01:46;11.50;;;4.80;;
36963;SDS011;22878;48.616;35.326;2023-04-24T06:04:12;14.50;;;4.30;;
36963;SDS011;22878;48.616;35.326;2023-04-24T06:06:40;11.90;;;4.00;;
36963;SDS011;22878;48.616;35.326;2023-04-24T06:09:06;7.70;;;3.70;;
36963;SDS011;22878;48.616;35.326;2023-04-24T06:11:32;9.90;;;4.00;;
36963;SDS011;22878;48.616;35.326;2023-04-24T06:13:57;13.00;;;3.60;;
36963;SDS011;22878;48.616;35.326;2023-04-24T06:16:23;9.70;;;3.90;;
36963;SDS011;22878;48.616;35.326;2023-04-24T06:18:49;12.90;;;4.00;;
36963;SDS011;22878;48.616;35.326;2023-04-24T06:21:15;8.00;;;2.60;;
36963;SDS011;22878;48.616;35.326;2023-04-24T06:23:41;9.70;;;3.00;;
36963;SDS011;22878;48.616;35.326;2023-04-24T06:26:07;4.70;;;1.90;;
36963;SDS011;22878;48.616;35.326;2023-04-24T06:28:33;11.00;;;3.10;;
36963;SDS011;22878;48.616;35.326;2023-04-24T06:30:58;8.00;;;2.40;;
36963;SDS011;22878;48.616;35.326;2023-04-24T06:33:24;9.50;;;2.90;;
36963;SDS011;22878;48.616;35.326;2023-04-24T06:35:49;6.00;;;2.30;;
36963;SDS011;22878;48.616;35.326;2023-04-24T06:38:15;7.10;;;2.80;;
36963;SDS011;22878;48.616;35.326;2023-04-24T06:40:41;11.50;;;3.40;;
36963;SDS011;22878;48.616;35.326;2023-04-24T06:43:06;4.50;;;2.50;;
36963;SDS011;22878;48.616;35.326;2023-04-24T06:45:32;8.60;;;3.00;;
36963;SDS011;22878;48.616;35.326;2023-04-24T06:47:58;10.20;;;2.60;;
36963;SDS011;22878;48.616;35.326;2023-04-24T06:50:23;5.30;;;2.70;;
36963;SDS011;22878;48.616;35.326;2023-04-24T06:52:49;6.50;;;2.70;;
36963;SDS011;22878;48.616;35.326;2023-04-24T06:55:15;6.90;;;2.50;;
36963;SDS011;22878;48.616;35.326;2023-04-24T06:57:42;16.40;;;2.70;;
36963;SDS011;22878;48.616;35.326;2023-04-24T07:00:09;8.50;;;2.70;;
36963;SDS011;22878;48.616;35.326;2023-04-24T07:02:35;5.70;;;2.70;;
36963;SDS011;22878;48.616;35.326;2023-04-24T07:05:00;7.40;;;2.70;;
36963;SDS011;22878;48.616;35.326;2023-04-24T07:07:26;7.40;;;2.70;;
36963;SDS011;22878;48.616;35.326;2023-04-24T07:09:52;7.60;;;2.90;;
36963;SDS011;22878;48.616;35.326;2023-04-24T07:12:19;7.30;;;2.80;;
36963;SDS011;22878;48.616;35.326;2023-04-24T07:14:46;11.20;;;3.20;;
36963;SDS011;22878;48.616;35.326;2023-04-24T07:17:12;8.80;;;3.00;;
36963;SDS011;22878;48.616;35.326;2023-04-24T07:19:38;9.00;;;2.70;;
36963;SDS011;22878;48.616;35.326;2023-04-24T07:22:04;7.40;;;3.10;;
36963;SDS011;22878;48.616;35.326;2023-04-24T07:24:30;7.50;;;2.30;;
36963;SDS011;22878;48.616;35.326;2023-04-24T07:26:57;8.10;;;2.70;;
36963;SDS011;22878;48.616;35.326;2023-04-24T07:29:23;6.30;;;2.60;;
36963;SDS011;22878;48.616;35.326;2023-04-24T07:31:49;5.60;;;2.50;;
36963;SDS011;22878;48.616;35.326;2023-04-24T07:34:14;4.20;;;2.80;;
36963;SDS011;22878;48.616;35.326;2023-04-24T07:36:40;6.60;;;2.60;;
36963;SDS011;22878;48.616;35.326;2023-04-24T07:39:06;9.20;;;2.70;;
36963;SDS011;22878;48.616;35.326;2023-04-24T07:41:33;7.70;;;2.80;;
36963;SDS011;22878;48.616;35.326;2023-04-24T07:43:58;7.30;;;3.30;;
36963;SDS011;22878;48.616;35.326;2023-04-24T07:46:24;6.40;;;2.80;;
36963;SDS011;22878;48.616;35.326;2023-04-24T07:48:50;6.20;;;2.70;;
36963;SDS011;22878;48.616;35.326;2023-04-24T07:51:15;5.10;;;2.60;;
36963;SDS011;22878;48.616;35.326;2023-04-24T07:53:42;8.20;;;2.80;;
36963;SDS011;22878;48.616;35.326;2023-04-24T07:56:08;8.40;;;2.60;;
36963;SDS011;22878;48.616;35.326;2023-04-24T07:58:34;13.20;;;2.90;;
36963;SDS011;22878;48.616;35.326;2023-04-24T08:01:00;9.50;;;2.30;;
36963;SDS011;22878;48.616;35.326;2023-04-24T08:03:25;6.30;;;2.60;;
36963;SDS011;22878;48.616;35.326;2023-04-24T08:05:51;8.90;;;2.80;;
36963;SDS011;22878;48.616;35.326;2023-04-24T08:08:17;11.40;;;2.50;;
36963;SDS011;22878;48.616;35.326;2023-04-24T08:10:42;10.40;;;3.00;;
36963;SDS011;22878;48.616;35.326;2023-04-24T08:13:08;8.60;;;2.90;;
36963;SDS011;22878;48.616;35.326;2023-04-24T08:15:34;15.10;;;2.30;;
36963;SDS011;22878;48.616;35.326;2023-04-24T08:17:59;8.30;;;3.10;;
36963;SDS011;22878;48.616;35.326;2023-04-24T08:20:25;4.50;;;2.20;;
36963;SDS011;22878;48.616;35.326;2023-04-24T08:22:51;11.30;;;2.80;;
36963;SDS011;22878;48.616;35.326;2023-04-24T08:25:16;9.40;;;2.40;;
36963;SDS011;22878;48.616;35.326;2023-04-24T08:27:43;11.20;;;2.40;;
36963;SDS011;22878;48.616;35.326;2023-04-24T08:30:09;7.40;;;2.50;;
36963;SDS011;22878;48.616;35.326;2023-04-24T08:32:35;8.60;;;2.70;;
36963;SDS011;22878;48.616;35.326;2023-04-24T08:35:02;11.10;;;3.10;;
36963;SDS011;22878;48.616;35.326;2023-04-24T08:37:28;7.90;;;2.70;;
36963;SDS011;22878;48.616;35.326;2023-04-24T08:39:53;8.90;;;2.70;;
36963;SDS011;22878;48.616;35.326;2023-04-24T08:42:19;9.90;;;3.00;;
36963;SDS011;22878;48.616;35.326;2023-04-24T08:44:46;7.50;;;2.80;;
36963;SDS011;22878;48.616;35.326;2023-04-24T08:47:14;9.90;;;2.70;;
36963;SDS011;22878;48.616;35.326;2023-04-24T08:49:40;9.90;;;2.40;;
36963;SDS011;22878;48.616;35.326;2023-04-24T08:52:05;11.90;;;2.40;;
36963;SDS011;22878;48.616;35.326;2023-04-24T08:54:31;9.90;;;2.60;;
36963;SDS011;22878;48.616;35.326;2023-04-24T08:56:59;11.10;;;2.70;;
36963;SDS011;22878;48.616;35.326;2023-04-24T08:59:26;10.00;;;2.80;;
36963;SDS011;22878;48.616;35.326;2023-04-24T09:01:52;10.40;;;3.00;;
36963;SDS011;22878;48.616;35.326;2023-04-24T09:04:20;9.80;;;3.10;;
36963;SDS011;22878;48.616;35.326;2023-04-24T09:06:47;10.90;;;3.20;;
36963;SDS011;22878;48.616;35.326;2023-04-24T09:09:14;15.80;;;3.40;;
36963;SDS011;22878;48.616;35.326;2023-04-24T09:11:42;8.30;;;2.70;;
36963;SDS011;22878;48.616;35.326;2023-04-24T09:14:08;8.80;;;3.10;;
36963;SDS011;22878;48.616;35.326;2023-04-24T09:16:35;8.00;;;3.00;;
36963;SDS011;22878;48.616;35.326;2023-04-24T09:19:01;8.60;;;3.00;;
36963;SDS011;22878;48.616;35.326;2023-04-24T09:21:31;12.40;;;3.00;;
36963;SDS011;22878;48.616;35.326;2023-04-24T09:23:59;20.80;;;3.30;;
36963;SDS011;22878;48.616;35.326;2023-04-24T09:26:26;10.40;;;3.00;;
36963;SDS011;22878;48.616;35.326;2023-04-24T09:28:57;6.40;;;2.80;;
36963;SDS011;22878;48.616;35.326;2023-04-24T09:31:22;7.80;;;2.60;;
36963;SDS011;22878;48.616;35.326;2023-04-24T09:34:00;18.90;;;2.90;;
36963;SDS011;22878;48.616;35.326;2023-04-24T09:36:32;8.70;;;3.00;;
36963;SDS011;22878;48.616;35.326;2023-04-24T09:39:02;13.20;;;2.70;;
36963;SDS011;22878;48.616;35.326;2023-04-24T09:41:29;8.30;;;2.30;;
36963;SDS011;22878;48.616;35.326;2023-04-24T09:43:57;10.40;;;2.40;;
36963;SDS011;22878;48.616;35.326;2023-04-24T09:46:38;14.10;;;3.30;;
36963;SDS011;22878;48.616;35.326;2023-04-24T09:49:13;7.80;;;2.80;;
36963;SDS011;22878;48.616;35.326;2023-04-24T09:51:40;9.60;;;3.00;;
36963;SDS011;22878;48.616;35.326;2023-04-24T09:54:16;10.90;;;2.60;;
36963;SDS011;22878;48.616;35.326;2023-04-24T09:56:50;9.60;;;2.30;;
36963;SDS011;22878;48.616;35.326;2023-04-24T09:59:17;8.20;;;2.90;;
36963;SDS011;22878;48.616;35.326;2023-04-24T10:01:44;9.30;;;2.50;;
36963;SDS011;22878;48.616;35.326;2023-04-24T10:04:19;9.40;;;2.60;;
36963;SDS011;22878;48.616;35.326;2023-04-24T10:06:47;9.40;;;2.20;;
36963;SDS011;22878;48.616;35.326;2023-04-24T10:09:20;8.00;;;2.40;;
36963;SDS011;22878;48.616;35.326;2023-04-24T10:11:48;11.10;;;2.10;;
36963;SDS011;22878;48.616;35.326;2023-04-24T10:14:16;11.90;;;2.00;;
36963;SDS011;22878;48.616;35.326;2023-04-24T10:16:46;6.10;;;1.80;;
36963;SDS011;22878;48.616;35.326;2023-04-24T10:19:15;10.20;;;2.20;;
36963;SDS011;22878;48.616;35.326;2023-04-24T10:21:46;7.70;;;2.50;;
36963;SDS011;22878;48.616;35.326;2023-04-24T10:24:15;11.30;;;2.60;;
36963;SDS011;22878;48.616;35.326;2023-04-24T10:26:43;10.80;;;2.20;;
36963;SDS011;22878;48.616;35.326;2023-04-24T10:29:10;11.60;;;2.40;;
36963;SDS011;22878;48.616;35.326;2023-04-24T10:31:37;8.60;;;2.30;;
36963;SDS011;22878;48.616;35.326;2023-04-24T10:34:06;9.00;;;1.90;;
36963;SDS011;22878;48.616;35.326;2023-04-24T10:36:33;6.10;;;2.00;;
36963;SDS011;22878;48.616;35.326;2023-04-24T10:39:01;7.30;;;2.20;;
36963;SDS011;22878;48.616;35.326;2023-04-24T10:41:31;10.50;;;2.70;;
36963;SDS011;22878;48.616;35.326;2023-04-24T10:44:12;7.30;;;2.30;;
36963;SDS011;22878;48.616;35.326;2023-04-24T10:46:44;12.10;;;2.60;;
36963;SDS011;22878;48.616;35.326;2023-04-24T10:49:13;9.40;;;1.80;;
36963;SDS011;22878;48.616;35.326;2023-04-24T10:51:45;6.70;;;2.30;;
36963;SDS011;22878;48.616;35.326;2023-04-24T10:59:45;9.40;;;2.20;;
36963;SDS011;22878;48.616;35.326;2023-04-24T11:02:15;10.50;;;2.20;;
36963;SDS011;22878;48.616;35.326;2023-04-24T11:04:42;9.90;;;2.50;;
36963;SDS011;22878;48.616;35.326;2023-04-24T11:07:10;9.60;;;2.50;;
36963;SDS011;22878;48.616;35.326;2023-04-24T11:09:36;8.00;;;2.40;;
36963;SDS011;22878;48.616;35.326;2023-04-24T11:12:08;6.30;;;2.00;;
36963;SDS011;22878;48.616;35.326;2023-04-24T11:20:03;9.70;;;2.60;;
36963;SDS011;22878;48.616;35.326;2023-04-24T11:22:32;9.80;;;2.60;;
36963;SDS011;22878;48.616;35.326;2023-04-24T11:25:00;8.30;;;2.30;;
36963;SDS011;22878;48.616;35.326;2023-04-24T11:27:34;11.00;;;2.40;;
36963;SDS011;22878;48.616;35.326;2023-04-24T11:30:05;7.80;;;2.10;;
36963;SDS011;22878;48.616;35.326;2023-04-24T11:37:36;8.30;;;2.60;;
36963;SDS011;22878;48.616;35.326;2023-04-24T11:40:04;11.30;;;2.80;;
36963;SDS011;22878;48.616;35.326;2023-04-24T11:42:35;7.90;;;2.30;;
36963;SDS011;22878;48.616;35.326;2023-04-24T11:45:06;7.90;;;1.90;;
36963;SDS011;22878;48.616;35.326;2023-04-24T11:47:33;7.70;;;2.30;;
36963;SDS011;22878;48.616;35.326;2023-04-24T11:49:58;8.60;;;2.00;;
36963;SDS011;22878;48.616;35.326;2023-04-24T11:52:25;8.90;;;2.20;;
36963;SDS011;22878;48.616;35.326;2023-04-24T11:54:52;10.20;;;2.10;;
36963;SDS011;22878;48.616;35.326;2023-04-24T11:57:20;9.90;;;2.10;;
36963;SDS011;22878;48.616;35.326;2023-04-24T11:59:47;9.00;;;2.10;;
36963;SDS011;22878;48.616;35.326;2023-04-24T12:02:19;7.20;;;2.10;;
36963;SDS011;22878;48.616;35.326;2023-04-24T12:04:48;7.20;;;1.80;;
36963;SDS011;22878;48.616;35.326;2023-04-24T12:07:14;5.70;;;1.50;;
36963;SDS011;22878;48.616;35.326;2023-04-24T12:09:54;8.80;;;1.70;;
36963;SDS011;22878;48.616;35.326;2023-04-24T12:12:23;6.00;;;1.80;;
36963;SDS011;22878;48.616;35.326;2023-04-24T12:14:55;5.00;;;1.70;;
36963;SDS011;22878;48.616;35.326;2023-04-24T12:17:25;5.70;;;1.60;;
36963;SDS011;22878;48.616;35.326;2023-04-24T12:20:00;4.00;;;1.30;;
36963;SDS011;22878;48.616;35.326;2023-04-24T12:22:43;4.70;;;1.40;;
36963;SDS011;22878;48.616;35.326;2023-04-24T12:25:12;5.30;;;1.80;;
36963;SDS011;22878;48.616;35.326;2023-04-24T12:27:41;6.40;;;1.50;;
36963;SDS011;22878;48.616;35.326;2023-04-24T12:30:12;7.00;;;1.70;;
36963;SDS011;22878;48.616;35.326;2023-04-24T12:32:43;6.90;;;1.40;;
36963;SDS011;22878;48.616;35.326;2023-04-24T12:35:11;5.40;;;1.60;;
36963;SDS011;22878;48.616;35.326;2023-04-24T12:37:36;4.00;;;1.20;;
36963;SDS011;22878;48.616;35.326;2023-04-24T12:42:31;7.20;;;1.90;;
36963;SDS011;22878;48.616;35.326;2023-04-24T12:45:03;6.20;;;1.70;;
36963;SDS011;22878;48.616;35.326;2023-04-24T12:47:32;9.50;;;1.70;;
36963;SDS011;22878;48.616;35.326;2023-04-24T12:49:58;7.50;;;1.50;;
36963;SDS011;22878;48.616;35.326;2023-04-24T12:52:27;6.30;;;1.60;;
36963;SDS011;22878;48.616;35.326;2023-04-24T12:54:55;7.10;;;1.30;;
36963;SDS011;22878;48.616;35.326;2023-04-24T12:57:23;5.90;;;1.40;;
36963;SDS011;22878;48.616;35.326;2023-04-24T12:59:50;5.90;;;1.50;;
36963;SDS011;22878;48.616;35.326;2023-04-24T13:02:17;8.70;;;1.70;;
36963;SDS011;22878;48.616;35.326;2023-04-24T13:04:46;6.20;;;1.50;;
36963;SDS011;22878;48.616;35.326;2023-04-24T13:07:12;7.10;;;1.70;;
36963;SDS011;22878;48.616;35.326;2023-04-24T13:09:38;5.50;;;1.90;;
36963;SDS011;22878;48.616;35.326;2023-04-24T13:12:05;5.30;;;1.50;;
36963;SDS011;22878;48.616;35.326;2023-04-24T13:14:31;9.40;;;2.10;;
36963;SDS011;22878;48.616;35.326;2023-04-24T13:16:56;5.80;;;1.60;;
36963;SDS011;22878;48.616;35.326;2023-04-24T13:19:24;13.70;;;2.20;;
36963;SDS011;22878;48.616;35.326;2023-04-24T13:21:56;7.10;;;1.80;;
36963;SDS011;22878;48.616;35.326;2023-04-24T13:24:22;5.70;;;1.90;;
36963;SDS011;22878;48.616;35.326;2023-04-24T13:26:51;8.10;;;2.10;;
36963;SDS011;22878;48.616;35.326;2023-04-24T13:29:17;11.00;;;2.10;;
36963;SDS011;22878;48.616;35.326;2023-04-24T13:31:43;10.00;;;1.60;;
36963;SDS011;22878;48.616;35.326;2023-04-24T13:34:09;8.80;;;1.90;;
36963;SDS011;22878;48.616;35.326;2023-04-24T13:36:35;7.20;;;2.00;;
36963;SDS011;22878;48.616;35.326;2023-04-24T13:39:00;8.10;;;1.80;;
36963;SDS011;22878;48.616;35.326;2023-04-24T13:41:26;10.40;;;1.80;;
36963;SDS011;22878;48.616;35.326;2023-04-24T13:43:52;4.20;;;1.70;;
36963;SDS011;22878;48.616;35.326;2023-04-24T13:46:17;6.70;;;1.70;;
36963;SDS011;22878;48.616;35.326;2023-04-24T13:48:43;5.90;;;2.00;;
36963;SDS011;22878;48.616;35.326;2023-04-24T13:51:08;10.90;;;2.10;;
36963;SDS011;22878;48.616;35.326;2023-04-24T13:53:34;5.90;;;1.70;;
36963;SDS011;22878;48.616;35.326;2023-04-24T13:56:03;4.40;;;1.60;;
36963;SDS011;22878;48.616;35.326;2023-04-24T13:58:28;4.90;;;2.10;;
36963;SDS011;22878;48.616;35.326;2023-04-24T14:00:55;13.30;;;2.00;;
36963;SDS011;22878;48.616;35.326;2023-04-24T14:03:20;9.70;;;1.80;;
36963;SDS011;22878;48.616;35.326;2023-04-24T14:05:46;4.40;;;1.50;;
36963;SDS011;22878;48.616;35.326;2023-04-24T14:08:11;7.00;;;2.20;;
36963;SDS011;22878;48.616;35.326;2023-04-24T14:10:36;6.50;;;1.60;;
36963;SDS011;22878;48.616;35.326;2023-04-24T14:13:02;10.40;;;1.60;;
36963;SDS011;22878;48.616;35.326;2023-04-24T14:15:28;7.40;;;1.70;;
36963;SDS011;22878;48.616;35.326;2023-04-24T14:17:53;11.00;;;1.70;;
36963;SDS011;22878;48.616;35.326;2023-04-24T14:20:19;8.40;;;1.70;;
36963;SDS011;22878;48.616;35.326;2023-04-24T14:22:44;6.20;;;1.40;;
36963;SDS011;22878;48.616;35.326;2023-04-24T14:25:10;6.80;;;1.80;;
36963;SDS011;22878;48.616;35.326;2023-04-24T14:27:36;7.80;;;1.70;;
36963;SDS011;22878;48.616;35.326;2023-04-24T14:30:01;4.50;;;1.40;;
36963;SDS011;22878;48.616;35.326;2023-04-24T14:32:28;6.50;;;1.40;;
36963;SDS011;22878;48.616;35.326;2023-04-24T14:34:53;5.60;;;1.30;;
36963;SDS011;22878;48.616;35.326;2023-04-24T14:37:19;5.00;;;1.40;;
36963;SDS011;22878;48.616;35.326;2023-04-24T14:39:45;7.60;;;1.90;;
36963;SDS011;22878;48.616;35.326;2023-04-24T14:42:10;6.00;;;1.40;;
36963;SDS011;22878;48.616;35.326;2023-04-24T14:44:36;6.60;;;1.30;;
36963;SDS011;22878;48.616;35.326;2023-04-24T14:47:01;3.70;;;1.50;;